Time;durP1;ratioP1;P1;durP2;ratioP2;P2;SDS_P1;SDS_P2;PMS_P1;PMS_P2;Temp;Humidity;BMP_temperature;BMP_pressure;BME280_temperature;BME280_humidity;BME280_pressure;Samples;Min_cycle;Max_cycle;Signal;HPM_P1;HPM_P2
2022/04/27 00:00:04;;;;;;;;;16.50;12.00;;;;;13.60;57.64;101840.13;5088674;27;45382;-85
2022/04/27 00:02:31;;;;;;;;;11.75;11.25;;;;;13.51;57.17;101816.28;5090123;27;45459;-86
2022/04/27 00:04:58;;;;;;;;;11.75;11.25;;;;;13.67;57.36;101838.72;5086621;27;45287;-86
2022/04/27 00:07:24;;;;;;;;;10.00;10.00;;;;;13.62;57.62;101845.41;5083882;27;45534;-85
2022/04/27 00:09:50;;;;;;;;;15.25;13.50;;;;;13.74;57.52;101873.75;5082389;27;45860;-86
2022/04/27 00:12:16;;;;;;;;;13.00;10.75;;;;;13.70;57.56;101874.41;5077818;27;45461;-85
2022/04/27 00:14:42;;;;;;;;;10.25;10.25;;;;;13.55;57.48;101844.19;5079144;27;45516;-86
2022/04/27 00:17:08;;;;;;;;;12.25;10.75;;;;;13.74;57.37;101871.16;5079508;27;45425;-88
2022/04/27 00:19:34;;;;;;;;;14.00;12.00;;;;;13.50;57.57;101843.09;5077098;28;45677;-86
2022/04/27 00:22:00;;;;;;;;;15.00;10.50;;;;;13.49;57.83;101846.50;5079009;27;45467;-85
2022/04/27 00:24:26;;;;;;;;;14.25;11.25;;;;;13.74;58.16;101895.44;5080877;27;45402;-85
2022/04/27 00:26:52;;;;;;;;;13.75;12.25;;;;;13.72;57.82;101888.41;5082537;28;46965;-85
2022/04/27 00:29:19;;;;;;;;;11.50;9.75;;;;;13.78;57.76;101902.59;5081875;27;45206;-84
2022/04/27 00:31:45;;;;;;;;;11.75;9.75;;;;;13.75;57.93;101883.34;5077974;27;45380;-85
2022/04/27 00:34:11;;;;;;;;;12.00;11.00;;;;;13.46;57.99;101846.34;5078179;28;45308;-86
2022/04/27 00:36:37;;;;;;;;;10.00;9.00;;;;;13.42;57.90;101839.22;5078173;28;47015;-85
2022/04/27 00:39:03;;;;;;;;;11.25;9.00;;;;;13.67;57.85;101884.66;5079397;28;45335;-85
2022/04/27 00:41:29;;;;;;;;;14.00;13.25;;;;;13.67;58.43;101897.66;5078708;28;45473;-88
2022/04/27 00:43:55;;;;;;;;;13.25;11.25;;;;;13.66;58.12;101898.50;5081931;28;45578;-87
2022/04/27 00:46:22;;;;;;;;;14.25;13.00;;;;;13.23;58.72;101824.38;5085133;28;46998;-87
2022/04/27 00:48:47;;;;;;;;;14.75;12.50;;;;;13.35;58.24;101851.00;5088064;28;45740;-87
2022/04/27 00:51:17;;;;;;;;;14.00;12.00;;;;;13.10;58.35;101813.34;5084651;28;45258;-87
2022/04/27 00:53:44;;;;;;;;;13.75;13.75;;;;;13.53;58.79;101897.00;5085850;27;45287;-86
2022/04/27 00:56:11;;;;;;;;;10.75;10.75;;;;;13.44;58.98;101893.13;5084232;27;45541;-86
2022/04/27 00:58:38;;;;;;;;;12.75;12.75;;;;;13.45;59.01;101901.78;5081747;27;45181;-85
2022/04/27 01:01:04;;;;;;;;;14.50;11.25;;;;;12.98;59.62;101828.31;5083314;27;45255;-88
2022/04/27 01:03:33;;;;;;;;;13.75;12.50;;;;;13.19;59.94;101864.03;5084465;27;45539;-87
2022/04/27 01:06:03;;;;;;;;;16.25;12.00;;;;;13.21;59.35;101870.22;5083265;28;47009;-88
2022/04/27 01:08:28;;;;;;;;;16.00;14.75;;;;;13.29;59.70;101882.78;5083935;27;45230;-87
2022/04/27 01:10:59;;;;;;;;;14.25;13.75;;;;;13.37;60.20;101898.78;5081875;27;45262;-87
2022/04/27 01:13:30;;;;;;;;;18.00;13.00;;;;;12.98;59.62;101826.63;5079926;27;45547;-88
2022/04/27 01:15:57;;;;;;;;;16.00;15.00;;;;;13.15;59.79;101853.50;5078409;28;46946;-87
2022/04/27 01:18:22;;;;;;;;;15.00;14.00;;;;;12.87;59.95;101812.19;5082087;27;45856;-87
2022/04/27 01:20:50;;;;;;;;;11.50;11.25;;;;;12.98;59.95;101843.91;5081915;27;45346;-88
2022/04/27 01:23:17;;;;;;;;;16.75;13.00;;;;;13.00;60.59;101853.59;5085856;27;45310;-87
2022/04/27 01:25:48;;;;;;;;;15.75;15.25;;;;;13.21;60.17;101886.72;5096203;27;45660;-87
2022/04/27 01:28:18;;;;;;;;;15.50;12.25;;;;;12.96;60.79;101850.72;5090711;28;45425;-86
2022/04/27 01:30:45;;;;;;;;;15.00;15.00;;;;;13.03;60.54;101862.34;5087172;27;45348;-88
2022/04/27 01:33:12;;;;;;;;;16.00;15.00;;;;;13.10;60.82;101883.56;5086297;27;45358;-88
2022/04/27 01:35:40;;;;;;;;;13.50;13.50;;;;;13.09;61.00;101883.47;5086952;28;47520;-86
2022/04/27 01:38:07;;;;;;;;;17.50;12.00;;;;;13.03;61.19;101883.16;5089002;27;45447;-87
2022/04/27 01:40:34;;;;;;;;;15.25;14.25;;;;;12.90;61.33;101876.41;5089088;27;45293;-86
2022/04/27 01:43:01;;;;;;;;;22.75;15.50;;;;;12.95;61.14;101877.56;5092141;27;45528;-86
2022/04/27 01:45:27;;;;;;;;;17.75;14.00;;;;;12.66;61.65;101828.44;5087761;28;48006;-86
2022/04/27 01:47:53;;;;;;;;;13.25;11.75;;;;;12.80;61.52;101852.56;5100123;27;45951;-85
2022/04/27 01:50:20;;;;;;;;;12.00;11.00;;;;;12.90;61.96;101874.75;5080962;28;45379;-85
2022/04/27 01:55:31;;;;;;;;;15.25;15.00;;;;;12.61;62.56;101829.91;5082681;28;45362;-88
2022/04/27 01:57:58;;;;;;;;;18.25;15.50;;;;;12.34;62.37;101786.09;5098626;27;45507;-86
2022/04/27 02:00:24;;;;;;;;;13.75;13.75;;;;;12.66;62.83;101859.63;5090798;27;45244;-86
2022/04/27 02:02:50;;;;;;;;;17.00;16.00;;;;;12.77;63.35;101883.56;5108420;27;45353;-86
2022/04/27 02:05:17;;;;;;;;;20.50;17.50;;;;;12.30;63.22;101815.28;5080001;27;46211;-87
2022/04/27 02:07:43;;;;;;;;;15.00;13.25;;;;;12.38;63.29;101833.88;5077193;28;45388;-87
2022/04/27 02:10:09;;;;;;;;;22.25;16.50;;;;;12.42;63.49;101838.41;5082701;27;45326;-85
2022/04/27 02:12:35;;;;;;;;;14.50;14.50;;;;;12.78;63.48;101910.47;5087007;27;44873;-84
2022/04/27 02:15:02;;;;;;;;;16.25;15.00;;;;;12.53;63.81;101872.75;5087439;27;45358;-85
2022/04/27 02:17:28;;;;;;;;;19.50;17.00;;;;;12.52;63.65;101868.38;5081750;27;45193;-85
2022/04/27 02:19:54;;;;;;;;;16.25;14.00;;;;;12.72;63.99;101913.63;5082130;27;45230;-87
2022/04/27 02:22:19;;;;;;;;;23.25;15.75;;;;;12.37;64.61;101850.25;5080425;27;45765;-87
2022/04/27 02:24:45;;;;;;;;;17.50;16.00;;;;;12.53;64.54;101880.56;5076928;27;47971;-86
2022/04/27 02:27:18;;;;;;;;;19.00;16.50;;;;;12.47;64.65;101869.84;5078310;27;45466;-86
2022/04/27 02:29:44;;;;;;;;;17.00;17.00;;;;;12.51;64.54;101876.97;5078004;27;45366;-87
2022/04/27 02:32:15;;;;;;;;;19.25;16.75;;;;;12.41;64.79;101865.22;5076696;28;45181;-86
2022/04/27 02:34:44;;;;;;;;;18.50;18.50;;;;;12.23;64.70;101834.81;5076971;27;46848;-86
2022/04/27 02:37:10;;;;;;;;;17.25;16.75;;;;;12.35;64.81;101850.19;5093532;27;45854;-85
2022/04/27 02:39:36;;;;;;;;;17.50;14.00;;;;;12.48;65.54;101882.00;5077757;27;45247;-86
2022/04/27 02:42:02;;;;;;;;;20.50;18.00;;;;;12.27;65.92;101850.56;5076580;27;45658;-86
2022/04/27 02:44:28;;;;;;;;;18.25;17.25;;;;;12.16;66.17;101829.22;5076983;27;45511;-85
2022/04/27 02:46:54;;;;;;;;;17.75;15.75;;;;;12.35;66.21;101872.66;5078981;28;45366;-85
2022/04/27 02:52:10;;;;;;;;;21.75;18.50;;;;;12.18;66.42;101841.50;5079109;27;45401;-86
2022/04/27 02:54:36;;;;;;;;;18.75;14.75;;;;;12.23;66.77;101868.56;5077097;28;47725;-86
2022/04/27 02:57:01;;;;;;;;;21.25;18.50;;;;;12.41;67.23;101891.19;5081497;27;45406;-82
2022/04/27 02:59:27;;;;;;;;;21.25;17.75;;;;;12.28;67.34;101866.22;5085742;27;45299;-82
2022/04/27 03:01:52;;;;;;;;;17.00;14.00;;;;;12.11;67.62;101847.13;5080571;27;45532;-82
2022/04/27 03:04:18;;;;;;;;;23.50;20.00;;;;;12.24;67.82;101856.50;5077225;27;45525;-83
2022/04/27 03:06:44;;;;;;;;;20.50;17.00;;;;;12.30;67.26;101871.53;5077138;27;45851;-84
2022/04/27 03:09:09;;;;;;;;;20.25;19.25;;;;;12.38;67.65;101888.41;5076884;27;45441;-84
2022/04/27 03:11:35;;;;;;;;;20.00;18.25;;;;;12.17;68.30;101860.47;5077680;27;45314;-89
2022/04/27 03:14:00;;;;;;;;;19.00;16.75;;;;;12.19;67.83;101865.72;5075345;27;45577;-83
2022/04/27 03:16:26;;;;;;;;;21.25;19.50;;;;;12.11;68.56;101854.91;5076483;27;45307;-88
2022/04/27 03:18:52;;;;;;;;;23.50;20.00;;;;;12.18;68.76;101861.34;5080198;28;45181;-82
2022/04/27 03:21:18;;;;;;;;;21.00;20.00;;;;;12.29;68.96;101883.59;5082061;27;45172;-82
2022/04/27 03:23:44;;;;;;;;;20.50;20.25;;;;;11.94;68.68;101825.41;5082359;28;47726;-82
2022/04/27 03:26:10;;;;;;;;;21.75;19.75;;;;;12.26;69.11;101890.34;5082627;27;45791;-83
2022/04/27 03:28:36;;;;;;;;;23.75;23.75;;;;;11.97;69.70;101846.34;5082275;27;45189;-83
2022/04/27 03:31:02;;;;;;;;;21.50;19.00;;;;;12.14;69.67;101880.19;5089413;27;46505;-82
2022/04/27 03:33:28;;;;;;;;;23.75;22.00;;;;;12.14;69.38;101881.06;5090645;27;47115;-82
2022/04/27 03:35:53;;;;;;;;;26.50;23.75;;;;;11.88;69.93;101843.22;5090471;27;45377;-84
2022/04/27 03:38:19;;;;;;;;;22.00;18.25;;;;;11.99;70.73;101857.75;5087142;27;45336;-85
2022/04/27 03:40:48;;;;;;;;;28.75;24.75;;;;;11.85;70.64;101835.25;5089753;28;45450;-87
2022/04/27 03:43:15;;;;;;;;;28.00;23.75;;;;;11.67;70.49;101803.97;5087150;27;45418;-87
2022/04/27 03:45:41;;;;;;;;;23.00;21.50;;;;;11.90;71.08;101855.47;5082007;28;45340;-85
2022/04/27 03:48:07;;;;;;;;;29.25;25.75;;;;;11.99;70.99;101875.91;5085512;28;45328;-84
2022/04/27 03:50:33;;;;;;;;;28.00;23.50;;;;;11.94;71.47;101859.13;5086815;28;44966;-87
2022/04/27 03:52:59;;;;;;;;;27.50;25.00;;;;;11.96;71.49;101857.53;5084776;27;45411;-86
2022/04/27 03:55:28;;;;;;;;;22.25;21.25;;;;;11.73;71.67;101817.31;5085420;27;45289;-86
2022/04/27 03:57:54;;;;;;;;;22.75;20.00;;;;;12.01;72.11;101873.38;5069367;28;45300;-88
2022/04/27 04:00:20;;;;;;;;;26.00;24.00;;;;;12.01;72.44;101871.69;5065264;28;45514;-85
2022/04/27 04:02:46;;;;;;;;;26.50;21.75;;;;;11.82;72.36;101845.50;5061506;28;45572;-83
2022/04/27 04:05:12;;;;;;;;;24.00;24.00;;;;;11.77;72.51;101845.19;5079750;27;45523;-87
2022/04/27 04:07:39;;;;;;;;;28.25;23.25;;;;;11.83;73.16;101853.34;5097292;27;45350;-84
2022/04/27 04:10:06;;;;;;;;;23.25;20.50;;;;;11.71;72.40;101832.81;5067256;28;45552;-87
2022/04/27 04:12:31;;;;;;;;;25.25;24.25;;;;;11.85;72.83;101862.13;5088304;27;46283;-88
2022/04/27 04:14:58;;;;;;;;;25.75;25.00;;;;;11.83;72.45;101868.00;5084643;27;45183;-85
2022/04/27 04:17:23;;;;;;;;;27.75;25.00;;;;;11.70;73.31;101848.28;5081442;27;45469;-85
2022/04/27 04:19:49;;;;;;;;;25.25;24.25;;;;;11.70;73.33;101853.47;5080319;27;45410;-85
2022/04/27 04:22:15;;;;;;;;;25.50;24.25;;;;;11.74;73.26;101866.69;5082342;27;45864;-85
2022/04/27 04:28:29;;;;;;;;;31.75;27.50;;;;;11.86;74.28;101891.53;5086856;27;45275;-85
2022/04/27 04:30:13;;;;;;;;;27.50;26.25;;;;;11.56;73.98;101850.97;5086945;27;45345;-86
2022/04/27 04:32:42;;;;;;;;;33.00;28.25;;;;;11.36;75.11;101817.81;5093952;27;46101;-84
2022/04/27 04:35:08;;;;;;;;;25.50;25.25;;;;;11.69;74.70;101881.13;5097198;28;45460;-84
2022/04/27 04:37:34;;;;;;;;;25.50;23.75;;;;;11.77;74.46;101900.59;5078830;27;45320;-85
2022/04/27 04:40:00;;;;;;;;;32.25;24.75;;;;;11.82;76.09;101900.88;5081736;27;45244;-86
2022/04/27 04:42:26;;;;;;;;;31.25;27.25;;;;;11.45;75.52;101834.78;5078307;28;47652;-86
2022/04/27 04:44:52;;;;;;;;;28.75;24.75;;;;;11.84;75.73;101901.84;5077017;27;45390;-85
2022/04/27 04:47:17;;;;;;;;;33.50;29.50;;;;;11.87;75.69;101907.22;5077477;27;45398;-86
2022/04/27 04:49:43;;;;;;;;;32.00;28.75;;;;;11.44;75.26;101827.81;5077124;27;45574;-86
2022/04/27 04:52:10;;;;;;;;;35.25;26.75;;;;;11.90;75.24;101904.78;5078169;27;46818;-86
2022/04/27 04:54:35;;;;;;;;;31.75;29.25;;;;;11.54;75.51;101854.28;5094387;27;45369;-85
2022/04/27 04:57:02;;;;;;;;;32.25;25.75;;;;;11.48;75.55;101849.63;5076901;27;45506;-86
2022/04/27 04:59:28;;;;;;;;;30.75;26.00;;;;;11.71;76.24;101891.56;5078848;27;45251;-85
2022/04/27 05:01:53;;;;;;;;;30.25;26.50;;;;;11.85;76.12;101907.91;5077176;27;47450;-83
2022/04/27 05:04:19;;;;;;;;;31.50;27.75;;;;;11.65;75.81;101880.84;5083466;28;45334;-84
2022/04/27 05:06:48;;;;;;;;;33.75;28.00;;;;;11.62;75.90;101876.34;5084784;27;45904;-85
2022/04/27 05:09:14;;;;;;;;;31.25;28.00;;;;;11.76;76.25;101908.31;5086672;27;45465;-84
2022/04/27 05:11:39;;;;;;;;;29.00;26.75;;;;;11.85;76.21;101921.81;5083490;28;46595;-85
2022/04/27 05:14:05;;;;;;;;;31.25;29.50;;;;;11.69;76.31;101898.38;5100225;27;45288;-85
2022/04/27 05:16:33;;;;;;;;;35.75;29.00;;;;;11.70;76.56;101895.88;5082736;27;45455;-85
2022/04/27 05:18:59;;;;;;;;;29.50;22.50;;;;;11.65;76.17;101886.03;5086966;27;45560;-86
2022/04/27 05:21:25;;;;;;;;;34.25;26.75;;;;;11.87;76.46;101930.56;5088999;27;47348;-85
2022/04/27 05:23:51;;;;;;;;;37.75;31.00;;;;;11.58;76.60;101884.78;5081750;27;45375;-85
2022/04/27 05:26:17;;;;;;;;;29.75;28.50;;;;;11.64;77.19;101900.69;5084547;27;45507;-85
2022/04/27 05:34:11;;;;;;;;;28.25;26.00;;;;;11.63;77.07;101891.13;5080126;27;46040;-83
2022/04/27 05:36:36;;;;;;;;;35.00;31.50;;;;;11.89;76.75;101928.06;5077637;27;45506;-85
2022/04/27 05:39:02;;;;;;;;;40.75;35.00;;;;;11.82;77.08;101928.53;5077628;28;45744;-83
2022/04/27 05:41:28;;;;;;;;;40.00;32.75;;;;;11.91;77.33;101948.09;5103431;27;47967;-83
2022/04/27 05:43:54;;;;;;;;;34.75;31.00;;;;;11.92;77.67;101947.28;5108713;27;45400;-84
2022/04/27 05:46:20;;;;;;;;;41.50;33.25;;;;;11.92;77.56;101946.41;5100245;27;45397;-77
2022/04/27 05:48:46;;;;;;;;;37.75;31.25;;;;;11.75;77.58;101915.19;5088448;27;45365;-84
2022/04/27 05:51:11;;;;;;;;;33.50;29.50;;;;;11.76;77.01;101916.09;5100309;27;46645;-78
2022/04/27 05:53:39;;;;;;;;;34.75;28.75;;;;;11.85;77.23;101932.19;5087000;27;45410;-89
2022/04/27 05:56:06;;;;;;;;;36.25;32.75;;;;;11.89;76.67;101947.09;5089302;27;45633;-85
2022/04/27 05:58:34;;;;;;;;;35.25;30.00;;;;;11.99;77.40;101964.16;5095534;27;45417;-89
2022/04/27 06:01:01;;;;;;;;;28.50;25.75;;;;;11.77;77.20;101934.34;5087978;27;46726;-93
2022/04/27 06:03:26;;;;;;;;;40.50;33.00;;;;;11.85;77.32;101959.81;5061959;28;45332;-82
2022/04/27 06:05:52;;;;;;;;;41.25;34.00;;;;;11.98;77.94;101975.34;5061382;27;45378;-84
2022/04/27 06:08:18;;;;;;;;;33.50;30.50;;;;;12.02;77.68;101971.22;5077045;27;45631;-83
2022/04/27 06:10:43;;;;;;;;;34.25;28.25;;;;;11.95;77.43;101956.06;5075078;27;46239;-83
2022/04/27 06:13:09;;;;;;;;;31.50;29.00;;;;;11.93;77.17;101948.19;5079861;27;45476;-92
2022/04/27 06:15:35;;;;;;;;;28.25;27.50;;;;;12.08;77.08;101982.84;5079906;27;45383;-85
2022/04/27 06:18:01;;;;;;;;;31.25;28.50;;;;;12.12;77.02;101983.03;5078452;28;45639;-86
2022/04/27 06:20:26;;;;;;;;;40.50;33.00;;;;;12.16;76.96;101993.69;5079846;27;45410;-83
2022/04/27 06:22:52;;;;;;;;;34.50;31.50;;;;;12.15;76.88;101985.81;5081727;27;45733;-84
2022/04/27 06:25:19;;;;;;;;;35.25;30.00;;;;;12.16;77.04;101993.69;5084357;28;45505;-84
2022/04/27 06:27:44;;;;;;;;;32.25;29.50;;;;;12.14;76.58;101986.63;5080565;27;45368;-88
2022/04/27 06:30:11;;;;;;;;;43.00;32.75;;;;;12.14;77.09;101995.28;5079594;27;45920;-80
2022/04/27 06:32:37;;;;;;;;;31.50;29.50;;;;;12.14;76.53;101991.81;5079549;27;45382;-79
2022/04/27 06:35:04;;;;;;;;;32.50;29.75;;;;;12.13;77.39;101984.81;5081626;27;45461;-85
2022/04/27 06:37:31;;;;;;;;;35.50;32.25;;;;;12.28;77.14;102002.97;5081564;27;45546;-80
2022/04/27 06:39:57;;;;;;;;;36.50;31.00;;;;;12.28;76.59;101996.06;5084336;27;46324;-90
2022/04/27 06:42:23;;;;;;;;;36.75;32.75;;;;;12.26;76.79;101987.28;5079962;27;45524;-83
2022/04/27 06:44:49;;;;;;;;;37.50;31.50;;;;;12.15;76.88;101962.44;5076610;27;45421;-86
2022/04/27 06:47:15;;;;;;;;;33.75;29.00;;;;;12.36;76.76;102001.69;5078931;28;45721;-83
2022/04/27 06:49:41;;;;;;;;;35.00;31.00;;;;;12.34;76.56;102003.31;5077646;27;45459;-77
2022/04/27 06:52:07;;;;;;;;;41.75;32.75;;;;;12.41;76.51;102007.16;5076176;27;45475;-78
2022/04/27 06:54:32;;;;;;;;;39.75;34.50;;;;;12.37;76.10;102012.16;5076814;27;45239;-77
2022/04/27 06:57:01;;;;;;;;;35.25;31.25;;;;;12.33;76.64;102011.91;5076200;27;45442;-78
2022/04/27 06:59:27;;;;;;;;;38.00;33.25;;;;;12.25;76.73;102000.19;5077442;28;46254;-80
2022/04/27 07:01:54;;;;;;;;;38.25;32.00;;;;;12.30;76.63;102012.63;5080087;27;45567;-83
2022/04/27 07:04:20;;;;;;;;;34.00;30.25;;;;;12.11;76.73;101986.44;5083949;27;45477;-78
2022/04/27 07:06:46;;;;;;;;;37.75;33.25;;;;;12.18;77.50;101998.94;5082000;27;45259;-80
2022/04/27 07:09:11;;;;;;;;;40.00;33.75;;;;;12.18;77.33;102004.13;5086227;27;45449;-83
2022/04/27 07:11:40;;;;;;;;;44.25;36.00;;;;;12.14;77.47;102008.25;5081173;27;45340;-82
2022/04/27 07:14:06;;;;;;;;;39.25;32.50;;;;;12.06;77.48;101996.56;5081844;27;45385;-81
2022/04/27 07:16:32;;;;;;;;;38.00;32.25;;;;;12.26;77.25;102031.44;5084056;28;45270;-83
2022/04/27 07:18:58;;;;;;;;;38.00;31.25;;;;;12.11;77.47;102008.06;5086312;27;46585;-83
2022/04/27 07:21:24;;;;;;;;;43.50;37.00;;;;;12.26;77.83;102040.94;5088045;27;45422;-86
2022/04/27 07:23:50;;;;;;;;;42.25;33.00;;;;;12.21;78.30;102023.38;5085360;27;45354;-84
2022/04/27 07:26:15;;;;;;;;;40.25;34.00;;;;;12.29;78.91;102033.34;5079998;27;45364;-78
2022/04/27 07:28:42;;;;;;;;;37.75;32.00;;;;;12.34;78.54;102035.38;5081174;28;46007;-83
2022/04/27 07:31:09;;;;;;;;;39.25;33.25;;;;;12.19;78.18;102005.94;5078734;28;45899;-84
2022/04/27 07:33:35;;;;;;;;;43.50;35.00;;;;;12.38;78.19;102033.84;5078864;27;45426;-81
2022/04/27 07:36:01;;;;;;;;;36.50;31.50;;;;;12.21;78.63;102013.00;5086933;27;45635;-86
2022/04/27 07:38:27;;;;;;;;;44.50;34.00;;;;;12.43;78.25;102040.19;5081024;27;46981;-83
2022/04/27 07:40:53;;;;;;;;;43.00;35.00;;;;;12.47;78.13;102044.75;5080121;27;45624;-87
2022/04/27 07:43:19;;;;;;;;;42.75;33.00;;;;;12.34;78.74;102021.50;5078596;28;45473;-85
2022/04/27 07:45:45;;;;;;;;;39.00;28.25;;;;;12.34;79.15;102021.50;5080191;27;45479;-85
2022/04/27 07:48:11;;;;;;;;;40.50;33.75;;;;;12.44;78.88;102020.31;5081805;27;47993;-83
2022/04/27 07:50:37;;;;;;;;;44.50;36.75;;;;;12.60;78.48;102040.25;5081528;28;45866;-87
2022/04/27 07:53:03;;;;;;;;;39.75;32.50;;;;;12.48;79.56;102017.97;5094190;27;45241;-87
2022/04/27 07:55:29;;;;;;;;;44.75;34.00;;;;;12.66;78.57;102048.38;5077967;27;45412;-83
2022/04/27 07:57:56;;;;;;;;;35.75;31.75;;;;;12.70;78.01;102051.25;5078989;27;46630;-82
2022/04/27 08:00:22;;;;;;;;;36.25;30.50;;;;;12.38;78.45;101993.19;5080504;27;45566;-87
2022/04/27 08:02:47;;;;;;;;;41.00;33.25;;;;;12.75;77.93;102037.63;5082223;28;45747;-83
2022/04/27 08:05:16;;;;;;;;;34.00;29.00;;;;;12.90;78.22;102059.28;5067255;27;45682;-83
2022/04/27 08:07:44;;;;;;;;;39.50;33.25;;;;;12.92;77.42;102055.03;5062305;28;45361;-82
2022/04/27 08:10:12;;;;;;;;;38.25;34.25;;;;;12.80;77.47;102034.47;5059986;28;45676;-85
2022/04/27 08:12:40;;;;;;;;;45.25;33.00;;;;;12.86;77.37;102036.53;5058692;28;45425;-84
2022/04/27 08:15:06;;;;;;;;;37.75;34.25;;;;;12.68;77.63;102003.53;5070877;27;45398;-84
2022/04/27 08:17:33;;;;;;;;;44.25;35.75;;;;;12.83;77.64;102023.34;5079629;28;46432;-81
2022/04/27 08:22:43;;;;;;;;;35.25;32.75;;;;;13.00;78.00;102052.88;5079090;28;45276;-86
2022/04/27 08:25:10;;;;;;;;;38.50;33.25;;;;;12.75;77.82;102009.03;5079905;27;45578;-84
2022/04/27 08:27:36;;;;;;;;;34.50;32.00;;;;;12.82;78.41;102012.06;5079061;28;46792;-86
2022/04/27 08:30:02;;;;;;;;;36.25;31.25;;;;;13.00;77.82;102038.19;5076581;27;45323;-84
2022/04/27 08:32:28;;;;;;;;;38.75;33.50;;;;;13.04;78.43;102039.25;5078100;27;46780;-79
2022/04/27 08:34:56;;;;;;;;;41.75;35.00;;;;;13.18;78.30;102052.06;5076008;28;45510;-79
2022/04/27 08:37:22;;;;;;;;;36.75;33.00;;;;;13.20;78.43;102048.75;5076953;28;45554;-81
2022/04/27 08:39:49;;;;;;;;;38.50;33.75;;;;;13.27;77.94;102053.47;5076421;27;45240;-76
2022/04/27 08:42:15;;;;;;;;;43.25;33.00;;;;;13.21;78.00;102034.94;5077736;27;45480;-80
2022/04/27 08:44:40;;;;;;;;;43.00;34.00;;;;;13.27;77.93;102039.59;5081488;27;45410;-91
2022/04/27 08:47:09;;;;;;;;;40.25;33.00;;;;;13.29;77.71;102043.13;5083645;28;46925;-83
2022/04/27 08:49:35;;;;;;;;;39.75;35.25;;;;;13.37;78.17;102041.88;5086796;27;45410;-89
2022/04/27 08:52:02;;;;;;;;;38.25;32.00;;;;;13.44;77.47;102044.00;5085997;27;45418;-84
2022/04/27 08:54:28;;;;;;;;;43.00;36.50;;;;;13.35;77.61;102012.28;5079144;27;45497;-83
2022/04/27 08:56:53;;;;;;;;;46.00;37.00;;;;;13.57;77.56;102044.66;5077920;27;47575;-81
2022/04/27 08:59:19;;;;;;;;;42.25;34.50;;;;;13.54;77.28;102036.69;5078922;27;46759;-82
2022/04/27 09:01:45;;;;;;;;;42.50;34.50;;;;;13.67;77.97;102057.31;5077401;27;45381;-77
2022/04/27 09:04:14;;;;;;;;;42.25;33.00;;;;;13.72;77.74;102053.25;5084236;27;45258;-84
2022/04/27 09:06:41;;;;;;;;;43.00;34.00;;;;;13.78;77.73;102053.56;5081353;27;45268;-79
2022/04/27 09:09:42;;;;;;;;;40.25;33.25;;;;;13.84;78.19;102062.50;5085064;28;45301;-87
2022/04/27 09:12:22;;;;;;;;;40.50;33.75;;;;;13.91;77.46;102055.09;5051639;28;45368;-80
2022/04/27 09:14:59;;;;;;;;;44.50;36.50;;;;;13.96;77.75;102050.13;5064865;27;45488;-82
2022/04/27 09:23:21;;;;;;;;;41.25;34.00;;;;;14.16;77.15;102052.81;5057509;28;45338;-85
2022/04/27 09:25:50;;;;;;;;;45.00;34.75;;;;;14.16;77.11;102035.50;5057552;28;45331;-81
2022/04/27 09:28:22;;;;;;;;;44.50;36.25;;;;;14.27;77.31;102048.16;5057318;28;45399;-80
2022/04/27 09:30:49;;;;;;;;;35.00;32.25;;;;;14.31;76.68;102044.88;5058874;28;45893;-77
2022/04/27 09:33:36;;;;;;;;;38.75;33.50;;;;;14.22;76.88;102020.16;5080404;28;45410;-80
2022/04/27 09:36:17;;;;;;;;;43.25;34.75;;;;;14.26;76.81;102023.81;5063673;28;45192;-82
2022/04/27 09:38:43;;;;;;;;;40.75;33.75;;;;;14.41;76.89;102034.13;5061175;28;46969;-83
2022/04/27 09:41:09;;;;;;;;;37.75;33.50;;;;;14.50;76.78;102044.97;5068242;28;45242;-81
2022/04/27 09:43:46;;;;;;;;;42.25;31.50;;;;;14.62;76.05;102057.69;5093906;28;44702;-86
2022/04/27 09:46:22;;;;;;;;;43.75;34.00;;;;;14.66;76.07;102053.53;5079653;27;45301;-86
2022/04/27 09:49:11;;;;;;;;;41.25;34.75;;;;;14.71;75.91;102044.25;5061631;28;46076;-88
2022/04/27 09:51:46;;;;;;;;;40.75;32.75;;;;;14.67;76.11;102032.78;5060978;28;45517;-87
2022/04/27 09:54:16;;;;;;;;;46.50;36.00;;;;;14.80;75.73;102047.28;5063283;28;45333;-87
2022/04/27 09:56:47;;;;;;;;;40.00;35.00;;;;;14.58;75.41;101998.41;5062029;28;45314;-85
2022/04/27 09:59:15;;;;;;;;;38.50;33.25;;;;;14.79;75.25;102031.59;5057487;28;45637;-86
2022/04/27 10:01:41;;;;;;;;;46.75;37.75;;;;;14.90;75.51;102032.09;5075684;27;45421;-84
2022/04/27 10:04:11;;;;;;;;;46.75;36.75;;;;;14.96;75.61;102033.25;5066139;28;45343;-88
2022/04/27 10:06:37;;;;;;;;;43.25;36.00;;;;;15.04;75.07;102031.03;5065403;28;45334;-87
2022/04/27 10:09:07;;;;;;;;;39.00;32.75;;;;;15.07;75.47;102023.31;5062625;28;46161;-91
2022/04/27 10:11:36;;;;;;;;;45.00;37.50;;;;;14.97;74.81;101993.31;5077430;28;45337;-88
2022/04/27 10:14:02;;;;;;;;;45.50;37.25;;;;;15.01;74.61;101995.22;5061049;28;45419;-87
2022/04/27 10:16:28;;;;;;;;;37.25;34.00;;;;;15.24;74.25;102017.97;5065969;28;45484;-85
2022/04/27 10:18:55;;;;;;;;;43.75;36.00;;;;;15.30;74.81;102010.41;5065329;28;45397;-88
2022/04/27 10:21:57;;;;;;;;;42.25;35.50;;;;;15.35;74.29;102008.91;5063277;28;45956;-88
2022/04/27 10:24:35;;;;;;;;;39.75;34.00;;;;;15.41;73.79;102005.69;5061810;28;45390;-87
2022/04/27 10:27:20;;;;;;;;;46.00;39.00;;;;;15.50;74.16;101997.34;5058723;28;45430;-86
2022/04/27 10:30:05;;;;;;;;;47.50;38.25;;;;;15.55;73.52;102003.69;5075097;27;46721;-87
2022/04/27 10:32:43;;;;;;;;;39.25;34.00;;;;;15.59;73.85;101987.34;5060534;28;45260;-87
2022/04/27 10:35:12;;;;;;;;;44.50;36.75;;;;;15.70;73.88;101979.94;5058674;28;45504;-79
2022/04/27 10:37:47;;;;;;;;;41.00;33.00;;;;;15.78;72.32;101981.16;5055969;28;45371;-84
2022/04/27 10:40:42;;;;;;;;;37.25;33.00;;;;;15.84;72.06;101984.09;5058038;28;45518;-83
2022/04/27 10:43:07;;;;;;;;;44.25;37.25;;;;;15.87;71.90;101975.47;5057984;27;46049;-85
2022/04/27 10:45:39;;;;;;;;;44.50;36.00;;;;;15.89;71.97;101966.88;5057051;28;45461;-83
2022/04/27 10:48:20;;;;;;;;;37.75;33.25;;;;;15.98;71.96;101971.59;5055741;28;45498;-83
2022/04/27 10:51:04;;;;;;;;;44.00;36.00;;;;;16.06;71.54;101975.41;5056801;28;46162;-83
2022/04/27 10:53:39;;;;;;;;;44.00;35.25;;;;;16.02;71.10;101955.22;5057199;28;45666;-83
2022/04/27 10:56:23;;;;;;;;;40.00;31.50;;;;;16.03;70.92;101949.16;5058005;28;45469;-82
2022/04/27 10:58:49;;;;;;;;;41.75;34.75;;;;;16.21;70.26;101974.25;5062628;28;45245;-84
2022/04/27 11:01:20;;;;;;;;;36.00;32.00;;;;;16.30;70.40;101963.28;5063949;28;45526;-84
2022/04/27 11:04:16;;;;;;;;;44.00;34.00;;;;;16.44;69.03;101971.66;5061872;28;45287;-83
2022/04/27 11:07:01;;;;;;;;;33.50;31.50;;;;;16.58;67.18;101962.63;5076255;27;45323;-82
2022/04/27 11:09:44;;;;;;;;;38.25;32.75;;;;;16.64;66.62;101956.72;5057118;28;45445;-84
2022/04/27 11:12:11;;;;;;;;;33.50;31.00;;;;;16.86;65.01;101958.44;5056835;28;46673;-82
2022/04/27 11:14:37;;;;;;;;;29.75;25.75;;;;;16.94;64.50;101943.94;5056850;28;45472;-85
2022/04/27 11:17:04;;;;;;;;;32.50;29.50;;;;;17.12;63.86;101955.91;5056489;28;45228;-85
2022/04/27 11:19:38;;;;;;;;;31.75;27.25;;;;;17.09;63.45;101941.00;5056483;28;45514;-84
2022/04/27 11:22:15;;;;;;;;;33.50;29.25;;;;;17.09;62.94;101932.28;5055423;28;45419;-85
2022/04/27 11:24:42;;;;;;;;;33.75;32.25;;;;;17.15;63.38;101928.16;5057131;28;45756;-86
2022/04/27 11:27:09;;;;;;;;;33.75;29.00;;;;;17.39;62.76;101942.03;5056137;28;45511;-80
2022/04/27 11:29:36;;;;;;;;;34.50;31.00;;;;;17.39;61.34;101945.53;5056178;28;45436;-84
2022/04/27 11:32:05;;;;;;;;;32.00;28.25;;;;;17.37;61.57;101939.38;5056488;28;45567;-82
2022/04/27 11:34:32;;;;;;;;;40.75;30.00;;;;;17.44;62.12;101933.50;5057794;28;45749;-85